Time;durP1;ratioP1;P1;durP2;ratioP2;P2;SDS_P1;SDS_P2;PMS_P1;PMS_P2;Temp;Humidity;BMP_temperature;BMP_pressure;BME280_temperature;BME280_humidity;BME280_pressure;Samples;Min_cycle;Max_cycle;Signal;HPM_P1;HPM_P2
2023/10/31 00:01:23;;;;;;;6.20;4.15;;;;;;;10.37;66.45;94982.56;5107490;28;20107;-76
2023/10/31 00:03:49;;;;;;;6.53;4.22;;;;;;;10.41;66.47;94983.94;5088149;28;20504;-77
2023/10/31 00:06:14;;;;;;;6.05;3.90;;;;;;;10.35;66.77;95000.03;5106945;28;20062;-77
2023/10/31 00:08:40;;;;;;;5.93;3.97;;;;;;;10.45;66.42;94990.56;5110262;28;20458;-76
2023/10/31 00:11:05;;;;;;;6.22;3.90;;;;;;;10.42;66.44;94984.75;5076446;28;20023;-76
2023/10/31 00:13:31;;;;;;;9.45;4.18;;;;;;;10.37;66.52;94987.75;5108024;28;20046;-76
2023/10/31 00:15:56;;;;;;;7.40;3.72;;;;;;;10.30;66.66;94986.56;5111277;28;20038;-76
2023/10/31 00:18:21;;;;;;;5.50;3.75;;;;;;;10.39;66.90;94998.00;5111157;28;20401;-76
2023/10/31 00:20:47;;;;;;;7.03;4.03;;;;;;;10.32;66.46;94978.66;5111673;28;20023;-76
2023/10/31 00:23:13;;;;;;;7.32;4.07;;;;;;;10.39;66.34;94974.63;5107490;28;20405;-76
2023/10/31 00:25:39;;;;;;;5.15;3.58;;;;;;;10.39;66.19;94974.63;5093055;28;20043;-76
2023/10/31 00:28:04;;;;;;;8.43;3.72;;;;;;;10.32;66.32;94973.47;5110997;28;20097;-76
2023/10/31 00:30:29;;;;;;;7.38;4.18;;;;;;;10.31;66.39;94967.47;5110299;28;20081;-76
2023/10/31 00:32:55;;;;;;;5.95;4.38;;;;;;;10.14;66.52;94960.13;5076031;28;20390;-76
2023/10/31 00:35:20;;;;;;;7.97;4.03;;;;;;;10.10;66.49;94961.34;5108883;28;20039;-76
2023/10/31 00:37:46;;;;;;;7.35;4.45;;;;;;;10.07;66.74;94950.25;5092606;28;20050;-76
2023/10/31 00:40:11;;;;;;;8.25;3.80;;;;;;;10.16;66.35;94968.63;5111000;28;20027;-76
2023/10/31 00:42:41;;;;;;;4.80;3.65;;;;;;;10.08;66.83;94964.03;5075504;28;20033;-76
2023/10/31 00:45:08;;;;;;;7.10;3.95;;;;;;;10.03;67.10;94977.38;5107876;28;20061;-77
2023/10/31 00:47:33;;;;;;;6.60;3.88;;;;;;;9.92;67.09;94945.41;5075159;28;20054;-76
2023/10/31 00:49:58;;;;;;;9.90;4.90;;;;;;;9.97;67.18;94953.66;5109622;28;20422;-76
2023/10/31 00:52:24;;;;;;;7.00;4.18;;;;;;;9.95;67.22;94958.19;5092007;28;20035;-76
2023/10/31 00:54:49;;;;;;;7.25;4.20;;;;;;;9.95;67.33;94960.78;5107402;28;20035;-76
2023/10/31 00:57:15;;;;;;;7.95;4.47;;;;;;;9.85;67.49;94951.09;5110513;28;20035;-76
2023/10/31 00:59:40;;;;;;;7.75;3.70;;;;;;;9.82;67.21;94943.53;5109826;28;20451;-76
2023/10/31 01:02:06;;;;;;;5.85;4.20;;;;;;;9.89;67.77;94964.66;5109290;28;20512;-76
2023/10/31 01:04:31;;;;;;;8.77;4.00;;;;;;;9.88;67.79;94967.38;5107802;28;20028;-77
2023/10/31 01:06:56;;;;;;;7.43;3.90;;;;;;;9.77;67.88;94963.81;5109215;28;20504;-76
2023/10/31 01:09:22;;;;;;;6.20;4.28;;;;;;;9.85;67.83;94964.06;5091971;28;20031;-76
2023/10/31 01:11:47;;;;;;;7.63;4.22;;;;;;;9.76;67.78;94946.63;5075173;28;20007;-76
2023/10/31 01:14:13;;;;;;;6.18;3.92;;;;;;;9.72;68.33;94937.44;5089840;28;20085;-76
2023/10/31 01:16:42;;;;;;;5.80;4.15;;;;;;;9.85;67.97;94956.28;5108698;28;20027;-76
2023/10/31 01:19:07;;;;;;;6.20;4.28;;;;;;;9.80;68.04;94945.41;5091011;28;20038;-76
2023/10/31 01:21:33;;;;;;;6.55;3.78;;;;;;;9.83;67.61;94937.44;5110142;28;20031;-76
2023/10/31 01:23:59;;;;;;;5.25;3.78;;;;;;;9.75;67.84;94944.13;5106699;28;20080;-76
2023/10/31 01:26:24;;;;;;;6.15;4.25;;;;;;;9.54;68.36;94931.06;5092828;28;20047;-76
2023/10/31 01:28:50;;;;;;;5.30;4.00;;;;;;;9.66;67.97;94948.25;5108786;28;20032;-77
2023/10/31 01:31:15;;;;;;;6.13;4.15;;;;;;;9.62;68.30;94939.91;5108941;28;20031;-77
2023/10/31 01:33:41;;;;;;;5.32;3.58;;;;;;;9.63;68.04;94941.53;5107570;28;20493;-76
2023/10/31 01:36:07;;;;;;;5.47;3.83;;;;;;;9.57;68.32;94949.78;5108721;28;20076;-76
2023/10/31 01:38:32;;;;;;;7.28;3.90;;;;;;;9.49;68.15;94926.22;5107851;28;20274;-76
2023/10/31 01:40:57;;;;;;;6.43;3.75;;;;;;;9.55;68.40;94933.53;5109853;28;20402;-76
2023/10/31 01:43:33;;;;;;;6.32;4.10;;;;;;;9.60;68.11;94938.38;5106153;28;20087;-76
2023/10/31 01:45:59;;;;;;;5.35;3.88;;;;;;;9.51;67.89;94936.50;5091462;28;20023;-76
2023/10/31 01:48:24;;;;;;;5.22;3.70;;;;;;;9.44;68.23;94938.72;5091000;28;20082;-76
2023/10/31 01:50:51;;;;;;;5.43;3.80;;;;;;;9.47;67.83;94935.91;5091228;28;20043;-76
2023/10/31 01:53:16;;;;;;;7.20;4.25;;;;;;;9.40;67.67;94930.34;5089133;28;20038;-76
2023/10/31 01:55:42;;;;;;;6.13;3.80;;;;;;;9.43;68.08;94938.84;5091044;28;20032;-76
2023/10/31 01:58:08;;;;;;;6.50;3.75;;;;;;;9.41;68.15;94941.53;5109088;28;20032;-76
2023/10/31 02:00:33;;;;;;;5.07;3.55;;;;;;;9.22;68.85;94931.75;5091249;28;20588;-76
2023/10/31 02:02:59;;;;;;;5.43;3.50;;;;;;;9.22;68.56;94947.31;5108057;28;20031;-76
2023/10/31 02:05:24;;;;;;;4.45;3.35;;;;;;;9.20;68.54;94933.63;5107215;28;20050;-76
2023/10/31 02:07:50;;;;;;;5.47;3.83;;;;;;;9.18;68.84;94927.72;5074201;28;20039;-76
2023/10/31 02:10:15;;;;;;;6.38;3.97;;;;;;;9.13;68.94;94932.44;5073964;28;20035;-76
2023/10/31 02:12:41;;;;;;;5.28;3.53;;;;;;;9.04;69.15;94909.81;5108951;28;20078;-76
2023/10/31 02:15:08;;;;;;;4.78;3.75;;;;;;;9.13;69.14;94933.25;5106088;28;20031;-76
2023/10/31 02:17:33;;;;;;;6.40;3.38;;;;;;;9.14;68.46;94918.56;5090436;28;20042;-76
2023/10/31 02:19:59;;;;;;;7.15;3.20;;;;;;;9.13;68.71;94932.44;5108852;28;20032;-76
2023/10/31 02:22:24;;;;;;;5.18;3.55;;;;;;;9.03;68.98;94906.41;5108967;28;20038;-76
2023/10/31 02:24:50;;;;;;;6.30;4.05;;;;;;;9.14;68.84;94923.72;5088931;28;20028;-77
2023/10/31 02:27:15;;;;;;;6.75;3.40;;;;;;;8.91;68.75;94897.78;5106912;28;20088;-76
2023/10/31 02:29:41;;;;;;;8.77;3.72;;;;;;;8.93;69.34;94911.44;5090465;28;20035;-76
2023/10/31 02:32:06;;;;;;;5.43;3.72;;;;;;;8.92;69.14;94907.19;5090854;28;20031;-76
2023/10/31 02:34:32;;;;;;;6.38;3.17;;;;;;;8.98;69.22;94911.09;5107633;28;20050;-76
2023/10/31 02:36:57;;;;;;;8.15;3.47;;;;;;;8.94;69.06;94909.66;5108923;28;20023;-76
2023/10/31 02:39:22;;;;;;;7.05;3.90;;;;;;;8.98;69.01;94907.69;5108337;28;20032;-76
2023/10/31 02:41:48;;;;;;;5.18;3.50;;;;;;;8.90;68.87;94898.69;5108595;28;20485;-76
2023/10/31 02:44:15;;;;;;;4.97;3.30;;;;;;;8.89;68.96;94901.44;5088533;28;20055;-76
2023/10/31 02:46:40;;;;;;;7.03;3.45;;;;;;;8.81;68.99;94891.63;5089874;28;20024;-77
2023/10/31 02:49:05;;;;;;;6.30;3.50;;;;;;;8.95;68.98;94904.38;5107020;28;20031;-76
2023/10/31 02:51:31;;;;;;;4.82;3.50;;;;;;;8.98;68.65;94908.50;5107237;28;20027;-76
2023/10/31 02:53:56;;;;;;;4.78;3.35;;;;;;;8.87;68.55;94900.72;5105256;28;20028;-76
2023/10/31 02:56:23;;;;;;;6.75;3.30;;;;;;;9.05;68.42;94914.03;5091118;28;20031;-76
2023/10/31 02:58:48;;;;;;;5.53;3.13;;;;;;;8.87;68.91;94917.06;5107099;28;20024;-76
2023/10/31 03:01:14;;;;;;;3.72;3.20;;;;;;;8.93;68.94;94914.00;5108380;28;20034;-76
2023/10/31 03:03:39;;;;;;;5.20;3.22;;;;;;;8.85;68.94;94918.13;5088487;28;20039;-76
2023/10/31 03:06:05;;;;;;;5.40;3.55;;;;;;;8.93;68.88;94921.78;5107087;28;20036;-76
2023/10/31 03:08:30;;;;;;;6.78;3.53;;;;;;;8.88;68.44;94903.16;5090178;28;20243;-76
2023/10/31 03:10:56;;;;;;;5.97;3.38;;;;;;;8.76;68.93;94913.63;5107036;28;20057;-76
2023/10/31 03:13:21;;;;;;;5.68;3.67;;;;;;;8.70;69.32;94902.78;5072336;28;21695;-76
2023/10/31 03:15:47;;;;;;;5.15;3.55;;;;;;;8.50;69.77;94875.78;5089638;28;20030;-76
2023/10/31 03:18:14;;;;;;;4.63;3.63;;;;;;;8.56;69.75;94887.44;5089287;28;20378;-76
2023/10/31 03:20:39;;;;;;;5.30;3.75;;;;;;;8.66;69.74;94906.56;5089849;28;20035;-76
2023/10/31 03:23:05;;;;;;;6.25;3.15;;;;;;;8.59;69.74;94904.53;5101968;28;20181;-76
2023/10/31 03:25:30;;;;;;;4.57;3.50;;;;;;;8.54;70.32;94910.03;5105554;28;20081;-76
2023/10/31 03:27:56;;;;;;;8.25;3.67;;;;;;;8.47;70.23;94898.47;5106164;28;20405;-76
2023/10/31 03:30:21;;;;;;;4.75;3.55;;;;;;;8.65;69.72;94906.66;5073023;28;20044;-76
2023/10/31 03:32:46;;;;;;;6.47;3.67;;;;;;;8.45;70.03;94897.75;5106430;28;20069;-76
2023/10/31 03:35:12;;;;;;;4.80;3.30;;;;;;;8.54;70.24;94899.66;5072529;28;20040;-76
2023/10/31 03:37:41;;;;;;;4.78;3.47;;;;;;;8.58;70.31;94900.25;5090153;28;20463;-76
2023/10/31 03:40:08;;;;;;;6.70;3.58;;;;;;;8.58;70.11;94893.34;5106299;28;20036;-76
2023/10/31 03:42:33;;;;;;;5.30;3.30;;;;;;;8.38;70.21;94871.44;5105570;28;20031;-76
2023/10/31 03:44:59;;;;;;;7.72;3.40;;;;;;;8.37;70.56;94859.44;5104649;28;20031;-76
2023/10/31 03:47:24;;;;;;;6.55;3.30;;;;;;;8.59;70.04;94884.63;5105465;28;20059;-76
2023/10/31 03:49:49;;;;;;;6.20;3.90;;;;;;;8.43;70.63;94879.75;5105958;28;20481;-76
2023/10/31 03:52:15;;;;;;;6.03;3.20;;;;;;;8.57;70.20;94885.66;5106256;28;20031;-76
2023/10/31 03:54:40;;;;;;;6.10;3.30;;;;;;;8.48;69.94;94879.41;5104083;28;20420;-76
2023/10/31 03:57:06;;;;;;;7.95;3.83;;;;;;;8.35;70.89;94889.78;5071869;28;20039;-76
2023/10/31 03:59:31;;;;;;;6.53;3.28;;;;;;;8.14;70.76;94853.38;5107224;28;20031;-76
2023/10/31 04:01:56;;;;;;;7.15;3.80;;;;;;;8.30;71.04;94881.53;5107506;28;20048;-76
2023/10/31 04:04:22;;;;;;;5.72;3.10;;;;;;;8.26;70.54;94856.81;5105051;28;20462;-76
2023/10/31 04:06:47;;;;;;;3.85;3.08;;;;;;;8.29;71.04;94879.88;5106320;28;20038;-76
2023/10/31 04:09:13;;;;;;;4.68;3.08;;;;;;;8.38;70.47;94891.34;5106933;28;20031;-76
2023/10/31 04:11:39;;;;;;;5.60;3.00;;;;;;;8.24;71.23;94858.69;5105955;28;20035;-76
2023/10/31 04:14:05;;;;;;;6.90;3.58;;;;;;;8.23;71.34;94891.50;5104384;28;20406;-75
2023/10/31 04:16:31;;;;;;;6.80;3.30;;;;;;;8.24;71.26;94889.75;5105774;28;20032;-76
2023/10/31 04:18:56;;;;;;;5.25;3.33;;;;;;;8.23;71.15;94880.34;5105775;28;20080;-76
2023/10/31 04:21:22;;;;;;;6.88;3.35;;;;;;;8.18;71.14;94874.66;5072226;28;20024;-76
2023/10/31 04:23:47;;;;;;;4.63;3.30;;;;;;;8.27;71.06;94882.59;5105275;28;20015;-76
2023/10/31 04:26:13;;;;;;;5.43;3.63;;;;;;;8.34;70.51;94876.97;5088745;28;20553;-76
2023/10/31 04:28:38;;;;;;;4.88;3.45;;;;;;;8.28;70.73;94867.91;5088652;28;20038;-76
2023/10/31 04:31:04;;;;;;;5.43;3.45;;;;;;;8.21;71.75;94872.69;5089299;28;20126;-76
2023/10/31 04:33:29;;;;;;;4.43;3.28;;;;;;;8.28;70.84;94871.31;5087756;28;20040;-76
2023/10/31 04:35:55;;;;;;;4.93;3.10;;;;;;;8.24;70.71;94862.09;5089283;28;20028;-75
2023/10/31 04:38:20;;;;;;;7.32;3.30;;;;;;;8.18;70.76;94869.50;5088269;28;20028;-75
2023/10/31 04:40:46;;;;;;;7.03;4.63;;;;;;;8.12;70.60;94854.41;5105934;28;20035;-76
2023/10/31 04:43:12;;;;;;;4.45;3.42;;;;;;;8.17;70.31;94862.69;5104528;28;20055;-76
2023/10/31 04:45:37;;;;;;;7.18;3.70;;;;;;;8.05;70.53;94847.09;5105456;28;20055;-76
2023/10/31 04:48:03;;;;;;;5.22;3.40;;;;;;;8.13;70.68;94874.16;5105100;28;20055;-76
2023/10/31 04:50:28;;;;;;;4.43;3.00;;;;;;;8.14;70.53;94868.06;5072244;28;20041;-76
2023/10/31 04:52:53;;;;;;;4.28;3.40;;;;;;;8.16;70.44;94873.94;5105626;28;20024;-76
2023/10/31 04:55:19;;;;;;;6.90;3.15;;;;;;;8.06;70.69;94879.78;5108599;28;20042;-76
2023/10/31 04:57:44;;;;;;;7.65;3.00;;;;;;;8.12;70.61;94895.81;5109035;28;20066;-76
2023/10/31 05:00:10;;;;;;;4.60;3.30;;;;;;;8.06;70.40;94899.66;5076550;28;20056;-76
2023/10/31 05:02:36;;;;;;;4.05;3.05;;;;;;;8.04;70.47;94894.59;5092942;28;20032;-76
2023/10/31 05:05:02;;;;;;;7.38;3.08;;;;;;;7.96;70.54;94891.72;5108964;27;20081;-76
2023/10/31 05:07:27;;;;;;;4.95;2.88;;;;;;;7.93;70.67;94893.72;5076319;27;20035;-76
2023/10/31 05:09:52;;;;;;;5.25;3.22;;;;;;;7.90;70.65;94879.22;5108398;27;20043;-76
2023/10/31 05:12:18;;;;;;;4.60;3.03;;;;;;;7.99;70.06;94882.91;5108942;27;20481;-76
2023/10/31 05:14:45;;;;;;;6.60;3.30;;;;;;;8.09;70.13;94888.28;5107110;27;20039;-77
2023/10/31 05:17:14;;;;;;;4.03;2.92;;;;;;;7.96;70.26;94875.38;5091946;28;20039;-76
2023/10/31 05:19:40;;;;;;;3.90;2.90;;;;;;;8.14;69.74;94889.59;5074232;28;20032;-76
2023/10/31 05:22:05;;;;;;;3.97;3.10;;;;;;;8.05;70.11;94872.97;5108548;28;20057;-76
2023/10/31 05:24:32;;;;;;;5.07;3.13;;;;;;;7.96;70.44;94880.56;5106961;28;20030;-76
2023/10/31 05:26:57;;;;;;;3.80;3.17;;;;;;;8.10;70.21;94885.56;5109925;28;20022;-76
2023/10/31 05:29:23;;;;;;;4.95;2.80;;;;;;;8.00;70.00;94887.19;5110418;28;20035;-76
2023/10/31 05:31:48;;;;;;;5.80;3.17;;;;;;;7.77;70.48;94853.44;5125785;27;20023;-76
2023/10/31 05:34:14;;;;;;;4.57;3.13;;;;;;;7.71;70.87;94877.13;5108286;28;20039;-76
2023/10/31 05:36:39;;;;;;;6.38;3.17;;;;;;;8.02;70.09;94899.06;5108448;28;20404;-76
2023/10/31 05:39:05;;;;;;;5.93;3.00;;;;;;;7.85;70.90;94902.00;5110157;28;20023;-76
2023/10/31 05:41:33;;;;;;;5.18;3.00;;;;;;;7.94;70.40;94901.38;5090872;28;20035;-76
2023/10/31 05:43:58;;;;;;;4.68;3.25;;;;;;;7.91;70.10;94896.44;5072829;28;20047;-76
2023/10/31 05:46:24;;;;;;;3.92;2.78;;;;;;;7.91;70.52;94900.75;5090910;28;20036;-76
2023/10/31 05:48:50;;;;;;;6.72;3.20;;;;;;;7.94;70.74;94905.69;5074069;28;20047;-76
2023/10/31 05:51:18;;;;;;;6.78;3.03;;;;;;;7.91;70.59;94911.09;5108813;27;20035;-77
2023/10/31 05:53:47;;;;;;;5.00;3.05;;;;;;;7.92;70.23;94912.75;5089087;28;20493;-76
2023/10/31 05:56:13;;;;;;;6.43;3.00;;;;;;;8.02;70.15;94919.78;5075586;28;20035;-76
2023/10/31 05:58:39;;;;;;;6.57;3.00;;;;;;;7.95;69.78;94882.31;5108594;28;20028;-76
2023/10/31 06:01:04;;;;;;;5.80;2.78;;;;;;;8.04;69.85;94886.84;5090783;28;20500;-76
2023/10/31 06:03:30;;;;;;;4.57;2.75;;;;;;;8.17;69.29;94893.72;5089656;28;20031;-76
2023/10/31 06:05:55;;;;;;;4.95;2.83;;;;;;;8.18;69.65;94895.38;5090879;28;20050;-76
2023/10/31 06:08:21;;;;;;;4.18;2.75;;;;;;;8.06;69.22;94882.38;5088181;28;20039;-76
2023/10/31 06:10:46;;;;;;;3.88;2.65;;;;;;;8.33;68.85;94912.41;5105338;28;20462;-76
2023/10/31 06:13:11;;;;;;;4.72;2.72;;;;;;;8.15;69.21;94911.13;5110596;27;20043;-79
2023/10/31 06:15:37;;;;;;;4.30;2.85;;;;;;;8.24;69.06;94908.69;5069872;28;20524;-76
2023/10/31 06:18:03;;;;;;;3.88;2.78;;;;;;;8.31;68.32;94890.97;5090924;28;20035;-76
2023/10/31 06:20:28;;;;;;;7.55;3.05;;;;;;;8.35;68.71;94904.50;5107522;28;20062;-77
2023/10/31 06:22:54;;;;;;;5.13;3.00;;;;;;;8.40;68.65;94923.97;5091586;28;20031;-74
2023/10/31 06:25:19;;;;;;;4.43;2.83;;;;;;;8.60;68.21;94934.66;5111134;27;20421;-73
2023/10/31 06:27:45;;;;;;;3.22;2.53;;;;;;;8.66;68.27;94936.78;5106844;28;20024;-76
2023/10/31 06:30:11;;;;;;;5.00;2.63;;;;;;;8.54;68.25;94930.75;5074656;28;20040;-77
2023/10/31 06:32:36;;;;;;;5.45;2.50;;;;;;;8.53;68.63;94912.75;5092397;28;20038;-78
2023/10/31 06:35:02;;;;;;;5.93;2.95;;;;;;;8.35;69.41;94920.84;5075010;28;20028;-76
2023/10/31 06:37:27;;;;;;;7.93;2.80;;;;;;;8.48;69.01;94921.66;5103837;28;20034;-77
2023/10/31 06:39:53;;;;;;;3.78;2.70;;;;;;;8.63;69.24;94939.59;5108899;28;20253;-77
2023/10/31 06:42:18;;;;;;;5.18;2.92;;;;;;;8.99;68.47;94946.41;5109245;28;20039;-77
2023/10/31 06:44:43;;;;;;;5.28;2.75;;;;;;;9.19;67.25;94939.75;5108093;28;20044;-77
2023/10/31 06:47:09;;;;;;;4.55;2.80;;;;;;;9.30;67.10;94939.75;5103553;28;20490;-77
2023/10/31 06:49:34;;;;;;;4.00;2.95;;;;;;;9.34;67.07;94936.00;5108009;28;20524;-77
2023/10/31 06:52:00;;;;;;;5.10;3.38;;;;;;;9.63;66.50;94925.16;5107090;28;20039;-77
2023/10/31 06:54:25;;;;;;;6.57;4.15;;;;;;;9.98;66.48;94939.75;5088931;28;20050;-77
2023/10/31 06:56:51;;;;;;;4.05;2.80;;;;;;;10.24;64.51;94912.56;5069899;28;20034;-76
2023/10/31 06:59:17;;;;;;;3.60;2.30;;;;;;;10.73;62.48;94926.81;5108481;28;20027;-77
2023/10/31 07:01:43;;;;;;;4.97;2.63;;;;;;;10.82;62.42;94922.63;5069323;28;20028;-76
2023/10/31 07:04:08;;;;;;;4.97;2.65;;;;;;;11.08;61.33;94902.28;5088967;28;20032;-78
2023/10/31 07:06:34;;;;;;;11.63;7.53;;;;;;;11.60;59.81;94882.28;5106144;28;20063;-77
2023/10/31 07:09:04;;;;;;;6.35;3.38;;;;;;;11.71;59.66;94916.97;5090560;28;20092;-77
2023/10/31 07:11:32;;;;;;;7.10;4.60;;;;;;;12.78;57.15;94912.78;5090773;28;20082;-77
2023/10/31 07:13:57;;;;;;;10.55;4.32;;;;;;;12.72;55.94;94895.91;5106481;28;20035;-77
2023/10/31 07:16:23;;;;;;;8.18;3.70;;;;;;;13.34;54.95;94906.00;5086774;28;20512;-77
2023/10/31 07:18:48;;;;;;;7.13;3.47;;;;;;;14.80;52.31;94905.25;5107096;28;20042;-77
2023/10/31 07:21:13;;;;;;;9.60;3.40;;;;;;;15.82;48.43;94871.41;5106384;28;20036;-78
2023/10/31 07:23:39;;;;;;;4.07;2.70;;;;;;;17.53;45.28;94903.22;5102954;28;20032;-78
2023/10/31 07:26:04;;;;;;;6.30;4.25;;;;;;;18.47;43.23;94883.16;5090959;28;20024;-76
2023/10/31 07:28:30;;;;;;;9.32;4.95;;;;;;;18.64;43.44;94897.03;5074897;28;20184;-72
2023/10/31 07:30:55;;;;;;;9.55;4.80;;;;;;;19.19;42.09;94893.34;5109830;28;20035;-75
2023/10/31 07:33:21;;;;;;;9.73;5.85;;;;;;;20.08;40.14;94899.53;5109483;28;20027;-75
2023/10/31 07:35:46;;;;;;;8.73;5.68;;;;;;;20.37;40.30;94889.94;5103723;28;20031;-75
2023/10/31 07:38:11;;;;;;;7.93;4.85;;;;;;;21.27;38.25;94874.59;5092793;28;20027;-75
2023/10/31 07:40:37;;;;;;;8.88;5.60;;;;;;;21.90;36.99;94885.19;5108709;28;20028;-75
2023/10/31 07:43:02;;;;;;;13.52;6.65;;;;;;;21.58;37.88;94882.97;5143886;27;20089;-75
2023/10/31 07:45:28;;;;;;;11.23;5.72;;;;;;;22.08;36.84;94882.84;5125553;27;20073;-75
2023/10/31 07:47:54;;;;;;;11.32;5.85;;;;;;;21.85;37.18;94865.44;5109548;28;20044;-75
2023/10/31 07:50:20;;;;;;;13.90;6.18;;;;;;;20.66;39.84;94856.59;5108286;28;20444;-75
2023/10/31 07:52:46;;;;;;;18.33;6.30;;;;;;;19.96;41.20;94874.63;5106958;28;20039;-75
2023/10/31 07:55:12;;;;;;;13.95;6.53;;;;;;;18.86;43.83;94872.56;5091909;28;20091;-76
2023/10/31 07:57:37;;;;;;;10.60;6.57;;;;;;;18.70;44.61;94868.22;5108034;28;20043;-75
2023/10/31 08:00:04;;;;;;;18.65;7.63;;;;;;;18.02;46.16;94858.41;5107883;28;20490;-75
2023/10/31 08:02:30;;;;;;;18.02;11.52;;;;;;;17.65;47.24;94852.78;5091151;28;20432;-75
2023/10/31 08:04:55;;;;;;;15.10;9.40;;;;;;;17.74;47.03;94850.94;5107821;28;20035;-75
2023/10/31 08:07:21;;;;;;;9.80;6.05;;;;;;;17.20;48.25;94859.47;5107453;28;20044;-75
2023/10/31 08:09:46;;;;;;;12.35;6.50;;;;;;;17.17;48.44;94840.63;5107624;28;20028;-75
2023/10/31 08:12:14;;;;;;;17.65;6.50;;;;;;;16.82;49.10;94826.88;5109424;28;20408;-75
2023/10/31 08:14:40;;;;;;;12.27;5.93;;;;;;;17.26;49.00;94842.22;5110876;28;20042;-75
2023/10/31 08:17:06;;;;;;;11.95;6.65;;;;;;;16.97;49.59;94827.84;5109374;28;20084;-75
2023/10/31 08:19:31;;;;;;;10.18;5.55;;;;;;;16.90;49.74;94831.28;5092867;28;20019;-75
2023/10/31 08:21:57;;;;;;;10.88;6.28;;;;;;;16.80;49.98;94836.72;5109706;28;20016;-76
2023/10/31 08:24:22;;;;;;;12.10;6.10;;;;;;;17.09;49.51;94844.06;5088538;28;20039;-75
2023/10/31 08:26:47;;;;;;;8.82;4.93;;;;;;;16.92;48.63;94808.34;5106824;28;20481;-75
2023/10/31 08:29:13;;;;;;;8.23;4.50;;;;;;;17.28;47.98;94814.00;5095481;28;20124;-76
2023/10/31 08:31:39;;;;;;;10.77;5.25;;;;;;;17.11;48.25;94820.28;5096018;28;20509;-76
2023/10/31 08:34:04;;;;;;;13.27;5.53;;;;;;;17.16;49.61;94817.97;5112932;28;20057;-75
2023/10/31 08:36:29;;;;;;;8.32;4.13;;;;;;;17.13;48.91;94807.81;5095723;28;20104;-75
2023/10/31 08:38:55;;;;;;;7.43;4.03;;;;;;;17.09;48.75;94809.94;5113235;28;20031;-75
2023/10/31 08:41:21;;;;;;;6.88;4.00;;;;;;;17.03;48.49;94794.06;5113496;28;20032;-76
2023/10/31 08:43:46;;;;;;;6.40;3.75;;;;;;;17.24;48.63;94802.19;5096267;28;20060;-76
2023/10/31 08:46:13;;;;;;;8.85;4.03;;;;;;;17.05;48.96;94785.03;5096469;28;20107;-76
2023/10/31 08:48:38;;;;;;;5.43;3.45;;;;;;;17.05;48.54;94787.66;5113482;28;20024;-75
2023/10/31 08:51:04;;;;;;;4.95;3.50;;;;;;;17.15;48.62;94788.28;5113689;28;20390;-75
2023/10/31 08:53:29;;;;;;;8.70;3.50;;;;;;;17.09;48.59;94767.97;5114684;28;20068;-76
2023/10/31 08:55:56;;;;;;;6.72;3.10;;;;;;;17.41;48.22;94780.19;5113822;28;20032;-76
2023/10/31 08:58:21;;;;;;;4.60;3.13;;;;;;;17.65;47.37;94773.19;5112484;28;20079;-76
2023/10/31 09:00:47;;;;;;;8.43;2.95;;;;;;;17.64;46.40;94766.28;5096202;28;20035;-76
2023/10/31 09:03:12;;;;;;;4.45;2.58;;;;;;;17.63;46.18;94751.50;5113759;28;20032;-75
2023/10/31 09:05:37;;;;;;;6.15;2.50;;;;;;;17.61;45.25;94729.88;5096530;28;20031;-75
2023/10/31 09:08:03;;;;;;;4.82;2.33;;;;;;;17.62;44.26;94742.00;5095966;28;20031;-76
2023/10/31 09:10:29;;;;;;;4.93;2.28;;;;;;;17.76;44.43;94738.63;5113208;28;20122;-76
2023/10/31 09:12:54;;;;;;;5.30;2.30;;;;;;;17.85;44.15;94742.88;5113188;28;20027;-75
2023/10/31 09:15:21;;;;;;;6.40;2.53;;;;;;;18.03;44.11;94737.38;5095775;28;20039;-76
2023/10/31 09:17:46;;;;;;;6.20;2.70;;;;;;;17.98;43.52;94708.16;5112910;28;20031;-75
2023/10/31 09:20:12;;;;;;;7.63;2.50;;;;;;;18.02;43.47;94732.28;5096163;28;20032;-76
2023/10/31 09:22:38;;;;;;;7.07;2.40;;;;;;;18.18;41.97;94719.00;5095956;28;20056;-76
2023/10/31 09:25:04;;;;;;;4.18;1.88;;;;;;;17.92;41.92;94722.00;5112953;28;20554;-76
2023/10/31 09:27:29;;;;;;;3.15;2.03;;;;;;;17.93;41.79;94707.03;5112881;28;20126;-75
2023/10/31 09:29:54;;;;;;;3.40;1.95;;;;;;;17.96;42.57;94701.44;5113042;28;20039;-76
2023/10/31 09:32:20;;;;;;;5.00;2.13;;;;;;;18.12;42.57;94706.59;5112698;28;20036;-76
2023/10/31 09:34:45;;;;;;;3.80;2.17;;;;;;;18.06;42.64;94686.25;5112881;28;20023;-75
2023/10/31 09:37:11;;;;;;;6.03;3.15;;;;;;;17.82;43.32;94672.28;5095788;28;20420;-76
2023/10/31 09:39:36;;;;;;;6.50;2.65;;;;;;;18.09;42.55;94693.78;5095082;28;20416;-76
2023/10/31 09:42:02;;;;;;;6.63;2.85;;;;;;;18.06;43.55;94681.00;5113982;28;20020;-76
2023/10/31 09:44:27;;;;;;;5.75;3.10;;;;;;;17.70;43.34;94647.41;5112746;28;20058;-76
2023/10/31 09:46:53;;;;;;;10.10;4.32;;;;;;;18.17;42.19;94682.41;5112360;28;20487;-75
2023/10/31 09:49:18;;;;;;;5.25;2.70;;;;;;;18.41;41.92;94673.47;5112710;28;20027;-76
2023/10/31 09:51:44;;;;;;;7.65;3.08;;;;;;;18.47;41.13;94659.59;5095472;28;20027;-76
2023/10/31 09:54:09;;;;;;;6.53;2.80;;;;;;;18.23;41.53;94642.25;5112525;28;20050;-76
2023/10/31 09:56:35;;;;;;;8.65;3.38;;;;;;;18.23;41.79;94645.69;5095404;28;20432;-76
2023/10/31 09:59:02;;;;;;;6.00;3.05;;;;;;;18.16;41.62;94636.06;5095603;28;20024;-75
2023/10/31 10:01:28;;;;;;;7.20;2.80;;;;;;;18.18;41.23;94632.25;5095632;28;20028;-76
2023/10/31 10:03:54;;;;;;;4.60;2.72;;;;;;;18.08;41.48;94601.00;5112233;28;20035;-76
2023/10/31 10:06:21;;;;;;;7.93;3.20;;;;;;;18.32;40.98;94628.03;5078374;28;20073;-75
2023/10/31 10:08:46;;;;;;;5.25;3.00;;;;;;;18.47;40.80;94625.41;5112626;28;20106;-76
2023/10/31 10:11:12;;;;;;;6.25;3.08;;;;;;;18.79;39.21;94629.56;5113558;28;20024;-76
2023/10/31 10:13:37;;;;;;;9.32;3.45;;;;;;;18.54;39.92;94605.28;5095049;28;20035;-76
2023/10/31 10:16:03;;;;;;;6.47;3.08;;;;;;;18.78;38.87;94617.41;5112112;28;20035;-77
2023/10/31 10:18:29;;;;;;;7.65;4.22;;;;;;;18.80;39.42;94598.78;5112322;28;20161;-77
2023/10/31 10:20:59;;;;;;;6.75;3.13;;;;;;;18.85;38.45;94602.50;5095048;28;20034;-77
2023/10/31 10:23:25;;;;;;;4.07;2.10;;;;;;;18.87;37.21;94583.91;5113551;28;20034;-76
2023/10/31 10:25:51;;;;;;;10.05;3.80;;;;;;;18.73;37.54;94599.50;5111844;28;20027;-77
2023/10/31 10:28:18;;;;;;;4.78;2.10;;;;;;;18.81;37.10;94587.28;5095109;28;20032;-77
2023/10/31 10:30:48;;;;;;;5.57;2.30;;;;;;;18.95;35.13;94583.81;5112066;28;20072;-77
2023/10/31 10:33:14;;;;;;;4.75;2.80;;;;;;;18.92;36.59;94571.03;5111820;28;20032;-77
2023/10/31 10:35:39;;;;;;;6.78;3.03;;;;;;;18.75;37.57;94573.84;5094694;28;20122;-77
2023/10/31 10:38:07;;;;;;;6.07;3.08;;;;;;;18.85;38.00;94555.13;5094825;28;20023;-77
2023/10/31 10:40:34;;;;;;;7.65;3.50;;;;;;;18.98;38.50;94576.34;5078014;28;20420;-77
2023/10/31 10:43:00;;;;;;;9.18;2.55;;;;;;;18.99;38.07;94566.63;5094702;28;20062;-77
2023/10/31 10:45:25;;;;;;;6.03;2.50;;;;;;;19.05;36.84;94576.44;5094596;28;20043;-77
2023/10/31 10:47:51;;;;;;;4.63;2.10;;;;;;;19.10;36.37;94576.69;5111603;28;20054;-77
2023/10/31 10:50:19;;;;;;;4.78;2.30;;;;;;;19.20;36.34;94563.25;5094258;28;20028;-77
2023/10/31 10:52:54;;;;;;;6.90;3.28;;;;;;;19.14;37.25;94556.91;5094239;28;20493;-77
2023/10/31 10:55:24;;;;;;;6.32;2.67;;;;;;;19.06;37.68;94558.84;5078417;28;20042;-77
2023/10/31 10:58:06;;;;;;;5.82;2.40;;;;;;;19.14;38.10;94538.47;5094803;28;20052;-77
2023/10/31 11:00:31;;;;;;;7.53;2.22;;;;;;;19.15;38.01;94534.03;5078944;28;20027;-77
2023/10/31 11:02:57;;;;;;;5.65;2.13;;;;;;;19.09;37.97;94534.78;5094281;28;20515;-77
2023/10/31 11:05:25;;;;;;;5.65;2.70;;;;;;;19.20;38.48;94529.03;5077304;28;20524;-77
2023/10/31 11:07:51;;;;;;;8.50;3.40;;;;;;;19.25;38.31;94526.66;5110879;28;20405;-77
2023/10/31 11:10:19;;;;;;;14.65;5.10;;;;;;;19.34;38.26;94509.72;5094502;28;20036;-77
2023/10/31 11:12:44;;;;;;;8.13;3.63;;;;;;;19.34;38.11;94488.66;5093972;28;20028;-78
2023/10/31 11:15:12;;;;;;;5.03;3.00;;;;;;;19.41;38.83;94512.41;5094081;28;20047;-77
2023/10/31 11:17:39;;;;;;;6.38;2.75;;;;;;;19.38;39.11;94508.31;5093669;28;20482;-77
2023/10/31 11:20:05;;;;;;;6.88;3.67;;;;;;;19.29;39.64;94511.28;5076879;28;20493;-77
2023/10/31 11:22:40;;;;;;;14.82;6.20;;;;;;;19.29;38.84;94492.84;5094310;28;20028;-77
2023/10/31 11:25:10;;;;;;;6.78;3.50;;;;;;;19.63;37.34;94503.47;5111029;28;20107;-77
2023/10/31 11:27:36;;;;;;;7.88;2.92;;;;;;;19.69;37.72;94503.75;5110992;28;20032;-77
2023/10/31 11:30:05;;;;;;;9.82;3.00;;;;;;;19.55;38.29;94482.53;5093896;28;20031;-77